Russels Point, Indiana
Current Conditions -  °F | °C
As of 3:35 AM on Thursday 18 Dec 2014 (Local Time) from KANQ Reporting Station
Overcast Overcast  
Wind Chill: 19°   Ceiling: 2500
Heat Index: 27°   Visibility: 10mi
Dew Point: 21°   Wind: 7mph
Humidity: 80%   Direction: 290°WNW
Pressure: 30.22"   Gusts: NA
Location:  41.5557°N, 84.8806°W
Report Text: KANQ 180835Z AUTO 29006KT 10SM OVC025 M03/M06 A3022 RMK
Loading
Personal Weather Stations






























Interactive Weather Map New forecast layout! Learn more

10-Day Weather Forecast

Advertisements
Track Severe Weather on mobile